Aeroporto :
LOGIN :

Iscrizione | Disclaimer

   EN    FR    IT 

 










Sommario :    VFR   VFR Marginale   IFR   IFR Intensivo   IFR Molto Intensivo
Visibilità : 
Base nubi : 
>= 8 km
>= 3000ft
5 / 8 km
1000 / 3000 ft
1500m / 5 km
500 / 1000 ft
800 / 1500m
200 / 500 ft
< 800m
< 200 ft
Simboli :   Temporali  Nebbia  Neve Forte  Precipitazioni Forti  Vento > 20 kt
SIGMETs :   Varie  Temporali  Ghiacco  Turbolenza  Onda orograficha  Ceneri Vulcaniche






- Altitudine del aeroporto : 412 ft
- Codice IATA : ORE


LFOJ - Orleans

ULTIMO METAR :
  • 122000Z AUTO 01007KT CAVOK 20/15 Q1024

METARs OBSOLETI :
  • 121930Z AUTO 01010KT CAVOK 21/15 Q1024
  • 121900Z AUTO 01008KT CAVOK 23/15 Q1023
  • 121830Z AUTO 02010KT CAVOK 24/15 Q1023
  • 121800Z AUTO 01009KT CAVOK 24/16 Q1023
  • 121730Z AUTO 36008KT CAVOK 25/16 Q1023

TAF TAF LFOJ
Valido dal 12 a 15 ore il 13 a 15 ore UTC


121400Z 1215/1315 35008KT 9999 SCT040 TX27/1215Z TN13/1304Z



MetMap, La meteo Aeronautica in un colpo d'occhio ! - Copyright ORBIFLY Dicembre 2007 - Disclaimer

ORBIFLY MET'MAP TEAM :

Programmazione e sviluppo : Alexandra Zaïnal
Concezione : Baudouin d'Aumeries
Aiuto per la programmazione : Marc-Olivier Méhu
Supporto tecnico e logistico : Manuel Goepfert
Aiuto per la traduzione : Arnaldo La Scala

Contatto : metmap@orbifly.com




FONTI E CREDITI :

   NOAA